Lions Gate Bridge — H9LV — position and weather

sailwx.info

Track history (hours):
 
Tides and Currents Weather Stations Pressure Air Temp Water Temp Dewpoint Dewpoint Depression Visibility Wind Speed Wind Dir Waves Ship Positions

Lions Gate Bridge

Last reported at 2015-Jan-24 01:33 UTC. Time now 2015-Jan-28 16:20 UTC.
Position N 35°04' E 140°30'.

Length 284.7 m; beam 40 m.

Type: Cargo ship. MMSI: 351086000.

Date/timePositionNaut miles runAvg speedWind from/ knotsBaromVisibWave heightAir tempDewpointWater temp
2015-Jan-24 01:33N 35°04' E 140°30'1716.5
2015-Jan-24 00:33N 34°55' E 140°13'1714.5
2015-Jan-23 23:23N 34°50' E 139°53'1113.0
2015-Jan-23 22:33N 34°56' E 139°42'1514.7
2015-Jan-23 21:32N 35°11' E 139°46'1211.9
2015-Jan-23 20:33N 35°22' E 139°42'1313.3
2015-Jan-23 19:34N 35°34' E 139°48'3 2.8
2015-Jan-23 18:29N 35°37' E 139°46'0 0.0
2015-Jan-23 17:17N 35°37' E 139°46'0 0.0
2015-Jan-23 16:05N 35°37' E 139°46'0 0.0
2015-Jan-23 15:08N 35°37' E 139°46'0 0.0
2015-Jan-23 14:05N 35°37' E 139°46'0 0.0
2015-Jan-23 07:26N 35°37' E 139°46'0 0.0
2015-Jan-23 06:05N 35°37' E 139°46'0 0.0
2015-Jan-23 05:23N 35°37' E 139°46'0 0.0
2015-Jan-23 04:11N 35°37' E 139°46'0 0.1
2015-Jan-23 03:23N 35°37' E 139°46'0 0.0
2015-Jan-23 02:32N 35°37' E 139°46'0 0.0
2015-Jan-23 01:11N 35°37' E 139°46'0 0.0
2015-Jan-23 00:29N 35°37' E 139°46'0 0.0
2015-Jan-22 23:32N 35°37' E 139°46'0 0.0
2015-Jan-22 22:26N 35°37' E 139°46'5 6.1
2015-Jan-22 21:33N 35°33' E 139°51'1110.6
2015-Jan-22 20:34N 35°23' E 139°46'1212.4
2015-Jan-22 19:33N 35°11' E 139°47'8 7.7
2015-Jan-22 18:34N 35°04' E 139°43'6 6.5
2015-Jan-22 17:33N 35°00' E 139°36'1412.7
2015-Jan-22 16:29N 34°53' E 139°23'  
2015-Jan-19 05:23N 24°39' E 119°27'1619.0
2015-Jan-19 04:33N 24°29' E 119°14'1918.9
2015-Jan-19 03:33N 24°18' E 118°57'2419.5
2015-Jan-19 02:20N 24°04' E 118°36'1620.4
2015-Jan-19 01:32N 23°56' E 118°21'2121.5
2015-Jan-19 00:33N 23°41' E 118°04'2121.3
2015-Jan-18 23:33N 23°29' E 117°45'4321.3
2015-Jan-18 21:31N 23°02' E 117°08'2020.9
2015-Jan-18 20:33N 22°50' E 116°50'12019.6
2015-Jan-18 14:26N 22°18' E 114°45'0 0.2
2015-Jan-18 13:09N 22°18' E 114°45'3111.6
2015-Jan-18 10:30N 22°34' E 114°17'1 1.1
2015-Jan-18 09:18N 22°34' E 114°16'0 0.0
2015-Jan-18 08:30N 22°34' E 114°16'0 0.0
2015-Jan-18 07:30N 22°34' E 114°16'0 0.0
2015-Jan-18 06:30N 22°34' E 114°16'0 0.0
2015-Jan-18 05:30N 22°34' E 114°16'0 0.0
2015-Jan-18 04:30N 22°34' E 114°16'0 0.0
2015-Jan-18 03:30N 22°34' E 114°16'0 0.0
2015-Jan-18 02:12N 22°34' E 114°16'0 0.0
2015-Jan-18 01:30N 22°34' E 114°16'0 0.0
2015-Jan-18 00:30N 22°34' E 114°16'0 0.0
2015-Jan-17 23:30N 22°34' E 114°16'0 0.0
2015-Jan-17 22:30N 22°34' E 114°16'0 0.1
2015-Jan-17 21:30N 22°34' E 114°15'0 0.1
2015-Jan-17 20:30N 22°34' E 114°16'0 0.0
2015-Jan-17 19:30N 22°34' E 114°16'0 0.1
2015-Jan-17 18:34N 22°34' E 114°15'15 6.8
2015-Jan-17 16:20N 22°25' E 114°29'911.8
2015-Jan-17 15:33N 22°16' E 114°30'1211.8
2015-Jan-17 14:33N 22°07' E 114°21'1110.7
2015-Jan-17 13:33N 22°12' E 114°10'8 7.9
2015-Jan-17 12:33N 22°20' E 114°07'1 0.5
2015-Jan-17 11:32N 22°20' E 114°08'0 0.0
2015-Jan-17 10:32N 22°20' E 114°08'0 0.0
2015-Jan-17 09:32N 22°20' E 114°08'0 0.0
2015-Jan-17 08:32N 22°20' E 114°08'0 0.0
2015-Jan-17 07:32N 22°20' E 114°08'0 0.0
2015-Jan-17 06:32N 22°20' E 114°08'0 0.0
2015-Jan-17 05:32N 22°20' E 114°08'0 0.0
2015-Jan-17 04:32N 22°20' E 114°08'0 0.0
2015-Jan-17 03:32N 22°20' E 114°08'0 0.0
2015-Jan-17 02:32N 22°20' E 114°08'0 0.0
2015-Jan-17 01:32N 22°20' E 114°08'0 0.0
2015-Jan-17 00:32N 22°20' E 114°08'0 0.0
2015-Jan-16 23:32N 22°20' E 114°08'0 0.0
2015-Jan-16 22:32N 22°20' E 114°08'0 0.0
2015-Jan-16 21:32N 22°20' E 114°08'0 0.0
2015-Jan-16 20:32N 22°20' E 114°08'0 0.0
2015-Jan-16 19:32N 22°20' E 114°08'0 0.0
2015-Jan-16 18:28N 22°20' E 114°08'3 3.4
2015-Jan-16 17:33N 22°17' E 114°06'10 9.9
2015-Jan-16 16:31N 22°09' E 114°14'10 9.3
2015-Jan-16 15:24N 22°09' E 114°25'19618.0
2015-Jan-16 04:31N 23°27' E 117°40'1919.5
2015-Jan-16 03:33N 23°40' E 117°55'2019.6
2015-Jan-16 02:33N 23°55' E 118°09'1919.2
2015-Jan-16 01:33N 24°12' E 118°18'1515.4
2015-Jan-16 00:33N 24°24' E 118°07'6 6.0
2015-Jan-15 23:33N 24°27' E 118°01'0 0.0
2015-Jan-15 22:06N 24°27' E 118°01'0 0.0
2015-Jan-15 21:30N 24°27' E 118°01'0 0.0
2015-Jan-15 20:30N 24°27' E 118°01'0 0.0
2015-Jan-15 19:18N 24°27' E 118°01'0 0.0
2015-Jan-15 18:06N 24°27' E 118°01'0 0.0
2015-Jan-15 17:30N 24°27' E 118°01'0 0.0
2015-Jan-15 16:30N 24°27' E 118°01'0 0.0
2015-Jan-15 14:30N 24°27' E 118°01'0 0.0
2015-Jan-15 09:18N 24°27' E 118°01'0 0.0
2015-Jan-15 08:30N 24°27' E 118°01'0 0.0
2015-Jan-15 07:06N 24°27' E 118°01'1 0.3
2015-Jan-15 05:29N 24°26' E 118°01'1010.7
2015-Jan-15 04:33N 24°21' E 118°10'10 9.8
2015-Jan-15 03:33N 24°14' E 118°18'7 6.9
2015-Jan-15 02:32N 24°09' E 118°24'7 7.0
2015-Jan-15 01:33N 24°04' E 118°28'69 6.8
2015-Jan-14 15:18N 23°06' E 119°10'17 8.6
2015-Jan-14 13:22N 23°03' E 119°27'15 8.4
2015-Jan-14 11:33N 23°00' E 119°44'16 8.0
2015-Jan-14 09:33N 22°49' E 119°56'1212.2
2015-Jan-14 08:33N 22°40' E 120°05'1212.4
2015-Jan-14 07:33N 22°33' E 120°16'4 3.6
2015-Jan-14 06:33N 22°33' E 120°20'0 0.1
2015-Jan-14 05:33N 22°33' E 120°20'0 0.1
2015-Jan-14 04:33N 22°33' E 120°20'0 0.1
2015-Jan-14 03:33N 22°33' E 120°20'0 0.0
2015-Jan-14 02:33N 22°33' E 120°20'0 0.0
2015-Jan-14 01:33N 22°33' E 120°20'  
Track history (hours):
 
Tides and Currents Weather Stations Pressure Air Temp Water Temp Dewpoint Dewpoint Depression Visibility Wind Speed Wind Dir Waves Ship Positions

Lions Gate Bridge

Last reported at 2015-Jan-24 01:33 UTC. Time now 2015-Jan-28 16:20 UTC.
Position N 35°04' E 140°30'.

Length 284.7 m; beam 40 m.

Type: Cargo ship. MMSI: 351086000.

Date/timePositionNaut miles runAvg speedWind from/ knotsBaromVisibWave heightAir tempDewpointWater temp
2015-Jan-24 01:33N 35°04' E 140°30'1716.5
2015-Jan-24 00:33N 34°55' E 140°13'1714.5
2015-Jan-23 23:23N 34°50' E 139°53'1113.0
2015-Jan-23 22:33N 34°56' E 139°42'1514.7
2015-Jan-23 21:32N 35°11' E 139°46'1211.9
2015-Jan-23 20:33N 35°22' E 139°42'1313.3
2015-Jan-23 19:34N 35°34' E 139°48'3 2.8
2015-Jan-23 18:29N 35°37' E 139°46'0 0.0
2015-Jan-23 17:17N 35°37' E 139°46'0 0.0
2015-Jan-23 16:05N 35°37' E 139°46'0 0.0
2015-Jan-23 15:08N 35°37' E 139°46'0 0.0
2015-Jan-23 14:05N 35°37' E 139°46'0 0.0
2015-Jan-23 07:26N 35°37' E 139°46'0 0.0
2015-Jan-23 06:05N 35°37' E 139°46'0 0.0
2015-Jan-23 05:23N 35°37' E 139°46'0 0.0
2015-Jan-23 04:11N 35°37' E 139°46'0 0.1
2015-Jan-23 03:23N 35°37' E 139°46'0 0.0
2015-Jan-23 02:32N 35°37' E 139°46'0 0.0
2015-Jan-23 01:11N 35°37' E 139°46'0 0.0
2015-Jan-23 00:29N 35°37' E 139°46'0 0.0
2015-Jan-22 23:32N 35°37' E 139°46'0 0.0
2015-Jan-22 22:26N 35°37' E 139°46'5 6.1
2015-Jan-22 21:33N 35°33' E 139°51'1110.6
2015-Jan-22 20:34N 35°23' E 139°46'1212.4
2015-Jan-22 19:33N 35°11' E 139°47'8 7.7
2015-Jan-22 18:34N 35°04' E 139°43'6 6.5
2015-Jan-22 17:33N 35°00' E 139°36'1412.7
2015-Jan-22 16:29N 34°53' E 139°23'  
2015-Jan-19 05:23N 24°39' E 119°27'1619.0
2015-Jan-19 04:33N 24°29' E 119°14'1918.9
2015-Jan-19 03:33N 24°18' E 118°57'2419.5
2015-Jan-19 02:20N 24°04' E 118°36'1620.4
2015-Jan-19 01:32N 23°56' E 118°21'2121.5
2015-Jan-19 00:33N 23°41' E 118°04'2121.3
2015-Jan-18 23:33N 23°29' E 117°45'4321.3
2015-Jan-18 21:31N 23°02' E 117°08'2020.9
2015-Jan-18 20:33N 22°50' E 116°50'12019.6
2015-Jan-18 14:26N 22°18' E 114°45'0 0.2
2015-Jan-18 13:09N 22°18' E 114°45'3111.6
2015-Jan-18 10:30N 22°34' E 114°17'1 1.1
2015-Jan-18 09:18N 22°34' E 114°16'0 0.0
2015-Jan-18 08:30N 22°34' E 114°16'0 0.0
2015-Jan-18 07:30N 22°34' E 114°16'0 0.0
2015-Jan-18 06:30N 22°34' E 114°16'0 0.0
2015-Jan-18 05:30N 22°34' E 114°16'0 0.0
2015-Jan-18 04:30N 22°34' E 114°16'0 0.0
2015-Jan-18 03:30N 22°34' E 114°16'0 0.0
2015-Jan-18 02:12N 22°34' E 114°16'0 0.0
2015-Jan-18 01:30N 22°34' E 114°16'0 0.0
2015-Jan-18 00:30N 22°34' E 114°16'0 0.0
2015-Jan-17 23:30N 22°34' E 114°16'0 0.0
2015-Jan-17 22:30N 22°34' E 114°16'0 0.1
2015-Jan-17 21:30N 22°34' E 114°15'0 0.1
2015-Jan-17 20:30N 22°34' E 114°16'0 0.0
2015-Jan-17 19:30N 22°34' E 114°16'0 0.1
2015-Jan-17 18:34N 22°34' E 114°15'15 6.8
2015-Jan-17 16:20N 22°25' E 114°29'911.8
2015-Jan-17 15:33N 22°16' E 114°30'1211.8
2015-Jan-17 14:33N 22°07' E 114°21'1110.7
2015-Jan-17 13:33N 22°12' E 114°10'8 7.9
2015-Jan-17 12:33N 22°20' E 114°07'1 0.5
2015-Jan-17 11:32N 22°20' E 114°08'0 0.0
2015-Jan-17 10:32N 22°20' E 114°08'0 0.0
2015-Jan-17 09:32N 22°20' E 114°08'0 0.0
2015-Jan-17 08:32N 22°20' E 114°08'0 0.0
2015-Jan-17 07:32N 22°20' E 114°08'0 0.0
2015-Jan-17 06:32N 22°20' E 114°08'0 0.0
2015-Jan-17 05:32N 22°20' E 114°08'0 0.0
2015-Jan-17 04:32N 22°20' E 114°08'0 0.0
2015-Jan-17 03:32N 22°20' E 114°08'0 0.0
2015-Jan-17 02:32N 22°20' E 114°08'0 0.0
2015-Jan-17 01:32N 22°20' E 114°08'0 0.0
2015-Jan-17 00:32N 22°20' E 114°08'0 0.0
2015-Jan-16 23:32N 22°20' E 114°08'0 0.0
2015-Jan-16 22:32N 22°20' E 114°08'0 0.0
2015-Jan-16 21:32N 22°20' E 114°08'0 0.0
2015-Jan-16 20:32N 22°20' E 114°08'0 0.0
2015-Jan-16 19:32N 22°20' E 114°08'0 0.0
2015-Jan-16 18:28N 22°20' E 114°08'3 3.4
2015-Jan-16 17:33N 22°17' E 114°06'10 9.9
2015-Jan-16 16:31N 22°09' E 114°14'10 9.3
2015-Jan-16 15:24N 22°09' E 114°25'19618.0
2015-Jan-16 04:31N 23°27' E 117°40'1919.5
2015-Jan-16 03:33N 23°40' E 117°55'2019.6
2015-Jan-16 02:33N 23°55' E 118°09'1919.2
2015-Jan-16 01:33N 24°12' E 118°18'1515.4
2015-Jan-16 00:33N 24°24' E 118°07'6 6.0
2015-Jan-15 23:33N 24°27' E 118°01'0 0.0
2015-Jan-15 22:06N 24°27' E 118°01'0 0.0
2015-Jan-15 21:30N 24°27' E 118°01'0 0.0
2015-Jan-15 20:30N 24°27' E 118°01'0 0.0
2015-Jan-15 19:18N 24°27' E 118°01'0 0.0
2015-Jan-15 18:06N 24°27' E 118°01'0 0.0
2015-Jan-15 17:30N 24°27' E 118°01'0 0.0
2015-Jan-15 16:30N 24°27' E 118°01'0 0.0
2015-Jan-15 14:30N 24°27' E 118°01'0 0.0
2015-Jan-15 09:18N 24°27' E 118°01'0 0.0
2015-Jan-15 08:30N 24°27' E 118°01'0 0.0
2015-Jan-15 07:06N 24°27' E 118°01'1 0.3
2015-Jan-15 05:29N 24°26' E 118°01'1010.7
2015-Jan-15 04:33N 24°21' E 118°10'10 9.8
2015-Jan-15 03:33N 24°14' E 118°18'7 6.9
2015-Jan-15 02:32N 24°09' E 118°24'7 7.0
2015-Jan-15 01:33N 24°04' E 118°28'69 6.8
2015-Jan-14 15:18N 23°06' E 119°10'17 8.6
2015-Jan-14 13:22N 23°03' E 119°27'15 8.4
2015-Jan-14 11:33N 23°00' E 119°44'16 8.0
2015-Jan-14 09:33N 22°49' E 119°56'1212.2
2015-Jan-14 08:33N 22°40' E 120°05'1212.4
2015-Jan-14 07:33N 22°33' E 120°16'4 3.6
2015-Jan-14 06:33N 22°33' E 120°20'0 0.1
2015-Jan-14 05:33N 22°33' E 120°20'0 0.1
2015-Jan-14 04:33N 22°33' E 120°20'0 0.1
2015-Jan-14 03:33N 22°33' E 120°20'0 0.0
2015-Jan-14 02:33N 22°33' E 120°20'0 0.0
2015-Jan-14 01:33N 22°33' E 120°20'  

Dump ship's entire track history